Time;durP1;ratioP1;P1;durP2;ratioP2;P2;SDS_P1;SDS_P2;PMS_P1;PMS_P2;Temp;Humidity;BMP_temperature;BMP_pressure;BME280_temperature;BME280_humidity;BME280_pressure;Samples;Min_cycle;Max_cycle;Signal;HPM_P1;HPM_P2
2022/11/21 00:05:14;;;;;;;78.10;33.30;;;;;;;-2.92;81.28;97838.58;420745;1298;108298;-40
2022/11/21 00:15:20;;;;;;;77.10;39.70;;;;;;;-3.15;81.25;97834.80;420822;1298;98843;-41
2022/11/21 00:25:27;;;;;;;72.10;35.70;;;;;;;-3.27;81.34;97821.14;420665;1295;111177;-40
2022/11/21 00:35:34;;;;;;;80.90;38.00;;;;;;;-3.43;81.23;97828.41;420448;1291;108065;-40
2022/11/21 00:45:41;;;;;;;94.70;43.80;;;;;;;-3.49;81.41;97814.75;420759;1291;99249;-40
2022/11/21 00:55:48;;;;;;;113.30;54.10;;;;;;;-3.55;81.73;97804.46;420676;1289;107202;-41
2022/11/21 01:06:00;;;;;;;128.10;55.00;;;;;;;-3.52;81.92;97789.26;420659;1290;98079;-40
2022/11/21 01:16:07;;;;;;;124.30;52.80;;;;;;;-3.68;81.91;97776.72;420683;1298;111383;-40
2022/11/21 01:26:17;;;;;;;122.10;58.20;;;;;;;-3.88;82.02;97768.42;420788;1290;109126;-41
2022/11/21 01:36:25;;;;;;;110.20;51.50;;;;;;;-4.04;82.25;97772.70;420633;1298;99095;-40
2022/11/21 01:46:32;;;;;;;107.80;56.90;;;;;;;-4.17;81.92;97763.54;420631;1298;107845;-40
2022/11/21 01:56:42;;;;;;;107.20;59.20;;;;;;;-4.26;81.85;97762.55;420562;1299;98063;-41
2022/11/21 02:06:49;;;;;;;88.90;47.80;;;;;;;-4.25;82.12;97755.80;420584;1283;112065;-41
2022/11/21 02:17:01;;;;;;;123.30;57.30;;;;;;;-4.33;82.26;97758.96;421501;1271;108205;-41
2022/11/21 02:27:09;;;;;;;122.50;57.00;;;;;;;-4.39;82.44;97750.66;420680;1292;99220;-41
2022/11/21 02:37:18;;;;;;;139.40;62.00;;;;;;;-4.49;82.55;97741.16;420674;1289;109208;-40
2022/11/21 02:47:26;;;;;;;138.90;64.00;;;;;;;-4.51;82.81;97735.39;420834;1290;98808;-40
2022/11/21 02:57:33;;;;;;;123.80;61.20;;;;;;;-4.58;82.54;97731.66;420782;1298;110641;-40
2022/11/21 03:07:40;;;;;;;138.30;70.70;;;;;;;-4.44;82.85;97715.88;420580;1299;107934;-40
2022/11/21 03:17:49;;;;;;;126.10;61.30;;;;;;;-4.17;83.18;97700.39;420775;1292;99249;-41
2022/11/21 03:27:57;;;;;;;94.50;50.70;;;;;;;-3.85;83.42;97697.66;420673;1299;108071;-40
2022/11/21 03:38:04;;;;;;;89.50;46.50;;;;;;;-3.57;83.59;97678.56;420732;1298;98089;-40
2022/11/21 03:48:10;;;;;;;107.20;49.60;;;;;;;-3.45;83.57;97666.89;420803;1299;113214;-40
2022/11/21 03:58:17;;;;;;;109.90;48.90;;;;;;;-3.51;83.71;97658.09;420768;1293;107534;-40
2022/11/21 04:08:23;;;;;;;103.60;47.10;;;;;;;-3.65;83.66;97644.27;420753;1299;98356;-40
2022/11/21 04:18:31;;;;;;;113.70;49.20;;;;;;;-3.97;83.22;97626.97;420634;1299;110673;-41
2022/11/21 04:28:38;;;;;;;125.90;57.10;;;;;;;-4.20;83.60;97606.91;420653;1292;108187;-40
2022/11/21 04:38:45;;;;;;;131.40;62.60;;;;;;;-4.10;83.78;97609.58;420758;1299;99217;-40
2022/11/21 04:48:52;;;;;;;133.90;65.60;;;;;;;-3.91;83.92;97598.34;420473;1301;108283;-40
2022/11/21 04:58:59;;;;;;;112.60;55.10;;;;;;;-3.68;83.96;97596.48;420544;1294;98041;-40
2022/11/21 05:09:06;;;;;;;139.90;64.20;;;;;;;-3.56;83.98;97587.48;420855;1298;111994;-40
2022/11/21 05:19:12;;;;;;;127.40;59.00;;;;;;;-3.65;84.00;97584.73;420779;1299;107818;-40
2022/11/21 05:29:19;;;;;;;124.00;58.50;;;;;;;-3.80;83.84;97574.39;420815;1299;99244;-40
2022/11/21 05:39:34;;;;;;;121.50;54.90;;;;;;;-4.04;83.66;97562.14;420864;1291;110841;-40
2022/11/21 05:49:41;;;;;;;140.70;65.50;;;;;;;-3.88;84.44;97560.75;420894;1298;109347;-39
2022/11/21 05:59:48;;;;;;;126.20;61.50;;;;;;;-3.49;84.80;97556.38;420923;1289;99239;-40
2022/11/21 06:09:55;;;;;;;117.40;58.10;;;;;;;-3.29;84.70;97543.52;420740;1298;109399;-40
2022/11/21 06:20:02;;;;;;;94.90;49.70;;;;;;;-3.16;84.67;97542.38;420772;1298;99339;-40
2022/11/21 06:30:11;;;;;;;100.40;49.20;;;;;;;-2.98;84.91;97564.11;420828;1290;111644;-40
2022/11/21 06:40:18;;;;;;;112.70;48.00;;;;;;;-2.82;84.94;97560.33;420662;1299;107631;-40
2022/11/21 06:50:25;;;;;;;103.00;45.10;;;;;;;-2.78;85.38;97540.00;420853;1287;98837;-41
2022/11/21 07:00:33;;;;;;;90.60;44.10;;;;;;;-2.45;86.05;97537.91;420723;1298;109312;-40
2022/11/21 07:10:40;;;;;;;95.20;44.00;;;;;;;-1.98;86.32;97521.56;420673;1292;99245;-39
2022/11/21 07:21:08;;;;;;;83.70;40.20;;;;;;;-1.42;86.75;97502.08;420752;1290;110823;-41
2022/11/21 07:31:16;;;;;;;103.50;48.50;;;;;;;-0.56;86.89;97505.52;420863;1299;106574;-40
2022/11/21 07:51:29;;;;;;;87.50;39.50;;;;;;;0.55;86.25;97484.75;420668;1298;111194;-40
2022/11/21 08:01:37;;;;;;;75.10;37.90;;;;;;;0.59;85.89;97476.56;420571;1291;108600;-42
2022/11/21 08:11:51;;;;;;;110.30;50.00;;;;;;;0.32;86.25;97470.64;420734;1298;99265;-40
2022/11/21 08:21:58;;;;;;;85.90;44.80;;;;;;;0.05;86.51;97467.90;420744;1298;108040;-40
2022/11/21 08:32:04;;;;;;;73.50;40.30;;;;;;;0.06;86.78;97467.63;420736;1291;98011;-39
2022/11/21 08:42:11;;;;;;;79.90;40.60;;;;;;;0.13;87.07;97468.95;420807;1291;112122;-40
2022/11/21 08:52:18;;;;;;;100.50;43.30;;;;;;;0.29;87.08;97467.07;422387;1282;107316;-41
2022/11/21 09:02:25;;;;;;;108.50;51.60;;;;;;;0.51;87.17;97460.48;420723;1288;98047;-41
2022/11/21 09:12:32;;;;;;;127.20;58.80;;;;;;;0.72;87.53;97458.80;420793;1298;108525;-40
2022/11/21 09:22:39;;;;;;;89.90;48.00;;;;;;;1.15;87.84;97450.08;420638;1298;99246;-40
2022/11/21 09:32:45;;;;;;;76.20;42.30;;;;;;;1.89;87.97;97438.31;420688;1298;113029;-39
2022/11/21 09:53:26;;;;;;;64.40;29.90;;;;;;;2.89;87.14;97416.16;422252;1292;99565;-40
2022/11/21 10:14:38;;;;;;;39.20;24.30;;;;;;;3.35;86.46;97401.16;420813;1295;107768;-40
2022/11/21 10:45:19;;;;;;;41.00;21.70;;;;;;;3.79;85.99;97403.19;420753;1291;109374;-38
2022/11/21 10:55:26;;;;;;;41.70;25.60;;;;;;;4.09;85.92;97392.56;420904;1291;99239;-40
2022/11/21 11:05:33;;;;;;;46.40;26.80;;;;;;;4.60;85.69;97385.67;420831;1298;108836;-41
2022/11/21 11:25:46;;;;;;;33.20;19.40;;;;;;;4.73;85.32;97380.91;421056;1298;111243;-40
2022/11/21 11:35:54;;;;;;;25.60;15.80;;;;;;;4.93;84.99;97377.96;420780;1292;108210;-40
2022/11/21 11:56:29;;;;;;;35.00;18.40;;;;;;;5.16;84.53;97381.36;420842;1294;108719;-41
2022/11/21 12:06:42;;;;;;;44.60;21.30;;;;;;;4.96;84.29;97383.20;420914;1298;99212;-40
2022/11/21 12:17:15;;;;;;;38.40;19.40;;;;;;;4.82;84.21;97383.71;420984;1293;112166;-41
2022/11/21 12:27:31;;;;;;;31.40;18.10;;;;;;;4.70;84.25;97390.54;420896;1298;107314;-40
2022/11/21 12:37:37;;;;;;;26.90;16.00;;;;;;;4.67;84.03;97392.66;420883;1299;98834;-40
2022/11/21 12:58:17;;;;;;;46.70;22.30;;;;;;;4.52;84.06;97380.91;420811;1298;109564;-39
2022/11/21 13:08:23;;;;;;;42.90;21.60;;;;;;;4.51;84.15;97380.13;420817;1292;99321;-40
2022/11/21 13:18:36;;;;;;;29.10;17.50;;;;;;;4.48;84.09;97380.39;420964;1295;111392;-39
2022/11/21 13:28:43;;;;;;;25.30;15.20;;;;;;;4.52;83.83;97382.20;420733;1298;109016;-40
2022/11/21 13:39:25;;;;;;;32.70;16.40;;;;;;;4.61;84.00;97382.11;420718;1299;98741;-40
2022/11/21 13:49:34;;;;;;;29.50;16.50;;;;;;;4.56;84.04;97384.65;420781;1297;109365;-40
2022/11/21 13:59:45;;;;;;;39.10;20.40;;;;;;;4.40;83.90;97390.16;420622;1291;99301;-40
2022/11/21 14:09:54;;;;;;;37.30;18.70;;;;;;;4.21;83.91;97397.46;420796;1291;111360;-40
2022/11/21 14:20:14;;;;;;;25.00;15.00;;;;;;;4.14;83.86;97398.08;420562;1298;107592;-40
2022/11/21 14:30:32;;;;;;;29.40;16.30;;;;;;;4.13;83.88;97402.34;420630;1288;99220;-38
2022/11/21 14:40:39;;;;;;;30.40;19.10;;;;;;;4.16;84.03;97405.82;420546;1298;107928;-40
2022/11/21 14:50:46;;;;;;;45.60;25.10;;;;;;;4.15;84.07;97415.21;420532;1292;99256;-40
2022/11/21 15:01:04;;;;;;;53.80;26.80;;;;;;;4.03;84.11;97416.55;420546;1291;111716;-40
2022/11/21 15:21:19;;;;;;;58.30;28.90;;;;;;;3.69;84.11;97421.29;420560;1291;98834;-40
2022/11/21 15:31:27;;;;;;;39.60;22.60;;;;;;;3.63;84.07;97421.39;420554;1298;110091;-40
2022/11/21 15:41:35;;;;;;;32.60;18.00;;;;;;;3.69;84.22;97421.14;420541;1291;107650;-41
2022/11/21 15:51:44;;;;;;;37.30;20.80;;;;;;;3.79;84.33;97421.30;420604;1299;97960;-41
2022/11/21 16:02:11;;;;;;;72.00;34.20;;;;;;;3.79;84.34;97416.38;420710;1299;108576;-40
2022/11/21 16:12:18;;;;;;;69.00;36.70;;;;;;;3.71;84.45;97417.89;420792;1290;99212;-39
2022/11/21 16:22:26;;;;;;;80.00;39.90;;;;;;;3.60;84.35;97421.30;420866;1291;113039;-44
2022/11/21 16:32:33;;;;;;;56.90;32.90;;;;;;;3.50;84.31;97422.82;420685;1298;107304;-40
2022/11/21 16:42:40;;;;;;;43.50;24.60;;;;;;;3.52;84.33;97428.27;420698;1298;99138;-39
2022/11/21 16:52:47;;;;;;;25.10;17.00;;;;;;;3.59;84.50;97431.24;420751;1298;108007;-40
2022/11/21 17:02:56;;;;;;;43.70;25.60;;;;;;;3.59;84.55;97429.83;420665;1297;99339;-40
2022/11/21 17:13:04;;;;;;;49.20;31.90;;;;;;;3.52;84.66;97425.87;420852;1292;112191;-39
2022/11/21 17:23:11;;;;;;;47.10;26.70;;;;;;;3.39;84.55;97419.83;420807;1292;107451;-41
2022/11/21 17:33:18;;;;;;;25.10;17.40;;;;;;;3.34;84.54;97420.63;420834;1298;98052;-40
2022/11/21 17:43:25;;;;;;;27.90;20.20;;;;;;;3.39;84.60;97429.84;420772;1291;108621;-39
2022/11/21 17:53:33;;;;;;;35.40;21.80;;;;;;;3.46;84.68;97432.70;420713;1292;99276;-43
2022/11/21 18:03:41;;;;;;;48.50;28.00;;;;;;;3.51;84.74;97442.15;420750;1298;111497;-41
2022/11/21 18:13:49;;;;;;;56.60;31.10;;;;;;;3.44;84.80;97442.50;420811;1298;106843;-39
2022/11/21 18:23:58;;;;;;;48.00;27.40;;;;;;;3.32;84.79;97457.02;420815;1282;99246;-41
2022/11/21 18:34:06;;;;;;;26.60;18.50;;;;;;;3.28;84.75;97472.35;420776;1298;110432;-43
2022/11/21 18:54:28;;;;;;;34.80;21.30;;;;;;;3.26;84.80;97477.39;420669;1298;98849;-40
2022/11/21 19:04:35;;;;;;;58.30;31.60;;;;;;;3.21;84.92;97477.55;420821;1292;107993;-40
2022/11/21 19:14:43;;;;;;;36.40;21.40;;;;;;;3.03;84.88;97489.48;420834;1299;99226;-39
2022/11/21 19:24:50;;;;;;;48.40;25.50;;;;;;;2.83;84.82;97501.33;420898;1298;112929;-40
2022/11/21 19:34:57;;;;;;;51.00;30.10;;;;;;;2.65;84.71;97513.17;420468;1298;108051;-41
2022/11/21 19:45:06;;;;;;;25.00;17.10;;;;;;;2.49;84.67;97513.98;420704;1298;98053;-40
2022/11/21 19:55:13;;;;;;;33.00;24.20;;;;;;;2.35;84.65;97513.73;420688;1284;107668;-39
2022/11/21 20:05:20;;;;;;;29.80;18.40;;;;;;;2.24;84.81;97522.46;420553;1290;98468;-45
2022/11/21 20:15:27;;;;;;;45.40;26.00;;;;;;;2.13;84.92;97529.75;420649;1291;112514;-41
2022/11/21 20:25:35;;;;;;;53.20;28.20;;;;;;;1.99;85.01;97531.96;420602;1292;107957;-41
2022/11/21 20:35:43;;;;;;;70.50;32.10;;;;;;;1.87;85.31;97552.37;420972;1298;98792;-40
2022/11/21 20:45:50;;;;;;;51.60;27.00;;;;;;;1.78;85.21;97560.88;420791;1298;111543;-48
2022/11/21 20:56:18;;;;;;;44.60;24.20;;;;;;;1.79;85.29;97558.79;420765;1296;108601;-39
2022/11/21 21:06:25;;;;;;;34.60;22.50;;;;;;;1.82;85.31;97551.48;420866;1292;99217;-40
2022/11/21 21:26:42;;;;;;;71.60;36.00;;;;;;;1.58;85.29;97570.66;420753;1299;99364;-41
2022/11/21 21:36:49;;;;;;;;;;;;;;;1.38;85.23;97574.09;420762;1299;111235;-39
2022/11/21 21:46:57;;;;;;;61.60;35.70;;;;;;;1.12;85.33;97572.05;420736;1293;107840;-40
2022/11/21 21:57:04;;;;;;;81.10;40.10;;;;;;;0.91;85.18;97571.04;420787;1298;99192;-41
2022/11/21 22:07:11;;;;;;;67.30;32.70;;;;;;;0.82;85.30;97558.99;420696;1295;110998;-40
2022/11/21 22:17:18;;;;;;;72.20;37.40;;;;;;;0.73;85.21;97568.33;420513;1293;108822;-40
2022/11/21 22:27:26;;;;;;;48.00;26.10;;;;;;;0.75;85.28;97561.34;420593;1290;99227;-41
2022/11/21 22:37:33;;;;;;;51.00;28.40;;;;;;;0.72;85.34;97546.13;420582;1298;107848;-41
2022/11/21 22:47:41;;;;;;;58.60;29.40;;;;;;;0.71;85.40;97541.17;420833;1295;98609;-41
2022/11/21 22:57:54;;;;;;;69.50;33.80;;;;;;;0.55;85.30;97540.70;420959;1299;110907;-39
2022/11/21 23:08:01;;;;;;;63.20;31.90;;;;;;;0.40;85.57;97535.29;420914;1297;108249;-40
2022/11/21 23:18:08;;;;;;;39.90;23.30;;;;;;;0.22;85.49;97517.15;420517;1299;414602;-39
2022/11/21 23:28:15;;;;;;;36.80;22.70;;;;;;;0.23;85.72;97514.67;420978;1295;111362;-40
2022/11/21 23:38:22;;;;;;;34.50;20.90;;;;;;;0.28;85.60;97514.72;420761;1290;107954;-41
2022/11/21 23:48:30;;;;;;;34.00;18.20;;;;;;;0.32;85.82;97507.58;420628;1298;99285;-40
2022/11/21 23:58:36;;;;;;;38.70;21.90;;;;;;;0.50;86.18;97504.09;420763;1299;109560;-40
